ROMMA est une association bénévole à but non lucratif. Votre soutien est indispensable : ADHERER à ROMMA ou FAIRE un DON

Crempigny-Bonneguête - (74, Haute-Savoie)

Albanais-Montagne des Princes (500 m)   Longitude: 05° 54' 5" E   Latitude: 45° 57' 0" N Station partenaire n°10
 

Détail journalier du     <<     >>

Température Precipitation Humidité Pression Vent Dir Rafale Dir. rafale Ensol. 20 cm au dessus du sol
Heure (°C) (mm) (%) (hPa) (km/h) (km/h) (min) (°C)
01:00 13.208110002SSE10O011.7
02:00 12.608610013ONO10O011.7
03:00 12.408710003SSO8SO011.7
04:00 11.508910014NNE8NO010.6
05:00 11.409010013ONO6NNE010.6
06:00 10.808910003NO8NO010.0
07:00 11.008510015NO8ONO010.6
08:00 11.408610012ONO6NO010.6
09:00 12.907910011N5N012.2
10:00 14.807310024SSO11S5516.7
11:00 16.106210024SE21S516.1
12:00 15.5061100228SO61O015.0
13:00 13.2078100341OSO71SO012.8
14:00 11.6076100540SO81S011.7
15:00 8.62.888100552SO103OSO07.8
16:00 9.31.879100628SSO90SSO08.9
17:00 9.508610069NNE42S1011.1
18:00 14.706210069S35S6015.6
19:00 14.9052100521SSO53SO5515.0
20:00 14.4049100628SSO52SO1513.3
21:00 14.3046100629SSO55SSO013.3
22:00 13.8048100827SSO56SO012.8
23:00 12.7052100813SE39ESE011.7
minuit 11.405710084SE19SE010.0

Graphique du 24-04-2019

 

Serveur OMMA